Aérodrome :
LOGIN :

S'inscrire | Disclaimer

   EN    FR    IT 

 










Légende :    VFR   VFR Marginal   IFR   IFR Intensif   IFR Très Intensif
Visi : 
Plafond : 
>= 8 km
>= 3000ft
5 à 8 km
1000 à 3000 ft
1500m à 5 km
500 à 1000 ft
800 à 1500m
200 à 500 ft
< 800m
< 200 ft
Symboles :   Orages  Brouillard  Fortes neiges  Fortes précipitations  Vent > 20 kt
SIGMETs :   Divers  Orages  Givrage  Turbulence  Onde Orograph.  Cendres Volcan.






- Altitude de l'aérodrome : 200 ft


EBBL - Klein Brogel AB

DERNIER METAR :
  • 261925Z AUTO VRB02KT 4100 BR BKN061/// BKN074/// 05/05 Q1019 GRN

METARs EXPIRÉS :
  • 261913Z AUTO 09003KT 3400 BR SCT062/// BKN074/// 05/05 Q1019 YLO
  • 261855Z AUTO VRB01KT 3900 BR FEW062/// SCT075/// 05/04 Q1019 GRN
  • 261843Z AUTO VRB01KT 1100 BR FEW058/// SCT075/// 05/05 Q1019 AMB
  • 261825Z AUTO VRB01KT 2100 BR FEW058/// BKN076/// 06/05 Q1019 YLO
  • 261809Z AUTO VRB01KT 3600 BR BKN076/// 06/05 Q1019 YLO
  • 261803Z AUTO VRB02KT 4600 BR BKN076/// 06/05 Q1020 GRN
  • 261746Z AUTO VRB01KT 5000 FEW056/// BKN076/// 06/05 Q1019 WHT
  • 261733Z AUTO VRB01KT 4500 FEW056/// BKN075/// 06/05 Q1019 GRN
  • 261712Z AUTO VRB01KT 2600 BR BKN056/// BKN076/// 06/06 Q1019 YLO

TAF TAF EBBL
Valide du 26 à 19h jusqu'au 27 à 07h UTC


261541Z 2619/2707 VRB03KT 7000 FEW050
BECMG 2621/2623 4000 BR
BECMG 2701/2703 2000 BR SCT002
PROB40
BECMG 2702/2704 0800 FG SCT000 BKN001



MET'MAP, la Météo Aéronautique d'un coup d'oeil ! - Copyright ORBIFLY Décembre 2007 - Disclaimer

ORBIFLY MET'MAP TEAM :

Programmation & Développement : Alexandra Zaïnal
Sur une idée originale de : Baudouin d'Aumeries
Assistance à la programmation : Marc-Olivier Méhu
Soutien technique & logistique : Manuel Goepfert

Contact : metmap@orbifly.com




SOURCES & CREDITS :

   NOAA